createdAt,value
2018-05-11T00:00:17.180Z,56.95
2018-05-11T00:02:47.591Z,56.74
2018-05-11T00:05:25.631Z,56.38
2018-05-11T00:08:06.557Z,56.48
2018-05-11T00:10:37.270Z,56.57
2018-05-11T00:13:07.744Z,56.56
2018-05-11T00:15:38.712Z,56.50
2018-05-11T00:18:09.148Z,56.47
2018-05-11T00:20:40.347Z,56.34
2018-05-11T00:23:10.636Z,56.02
2018-05-11T00:25:40.781Z,56.00
2018-05-11T00:28:11.043Z,56.04
2018-05-11T00:30:41.202Z,56.61
2018-05-11T00:33:11.459Z,57.13
2018-05-11T00:35:42.632Z,57.08
2018-05-11T00:38:13.050Z,57.17
2018-05-11T00:40:43.219Z,58.01
2018-05-11T00:43:13.389Z,58.19
2018-05-11T00:45:44.711Z,58.57
2018-05-11T00:48:15.213Z,58.16
2018-05-11T00:50:45.479Z,57.90
2018-05-11T00:53:15.633Z,57.92
2018-05-11T00:55:51.455Z,58.34
2018-05-11T00:58:21.608Z,58.71
2018-05-11T01:00:51.828Z,58.79
2018-05-11T01:03:22.074Z,58.38
2018-05-11T01:05:52.287Z,58.07
2018-05-11T01:08:22.512Z,57.64
2018-05-11T01:10:55.136Z,57.66
2018-05-11T01:13:25.346Z,57.51
2018-05-11T01:15:55.829Z,57.18
2018-05-11T01:18:25.967Z,57.35
2018-05-11T01:20:56.158Z,57.73
2018-05-11T01:23:27.164Z,58.50
2018-05-11T01:25:57.441Z,58.77
2018-05-11T01:28:27.700Z,58.50
2018-05-11T01:30:59.022Z,58.68
2018-05-11T01:33:29.203Z,58.52
2018-05-11T01:35:59.965Z,58.82
2018-05-11T01:38:30.273Z,58.76
2018-05-11T01:41:00.593Z,58.71
2018-05-11T01:43:31.576Z,59.00
2018-05-11T01:46:03.331Z,58.63
2018-05-11T01:48:33.692Z,58.43
2018-05-11T01:51:04.982Z,58.41
2018-05-11T01:53:35.273Z,58.70
2018-05-11T01:56:08.584Z,58.73
2018-05-11T01:58:38.800Z,58.82
2018-05-11T02:01:11.221Z,58.66
2018-05-11T02:03:51.622Z,59.01
2018-05-11T02:06:23.175Z,58.82
2018-05-11T02:08:56.795Z,58.96
2018-05-11T02:11:27.013Z,59.38
2018-05-11T02:13:57.116Z,59.62
2018-05-11T02:16:27.313Z,59.24
2018-05-11T02:18:58.047Z,59.40
2018-05-11T02:21:28.612Z,60.08
2018-05-11T02:23:59.661Z,60.02
2018-05-11T02:26:31.304Z,59.64
2018-05-11T02:29:08.179Z,59.07
2018-05-11T02:31:38.800Z,58.96
2018-05-11T02:34:10.205Z,58.91
2018-05-11T02:36:40.660Z,59.03
2018-05-11T02:39:12.645Z,58.98
2018-05-11T02:41:44.163Z,58.90
2018-05-11T02:44:24.603Z,59.59
2018-05-11T02:46:54.825Z,59.31
2018-05-11T02:49:25.089Z,59.42
2018-05-11T02:51:55.230Z,59.36
2018-05-11T02:54:25.558Z,59.30
2018-05-11T02:56:56.147Z,59.19
2018-05-11T02:59:26.576Z,59.46
2018-05-11T03:01:58.133Z,59.68
2018-05-11T03:04:30.547Z,59.75
2018-05-11T03:07:02.503Z,59.74
2018-05-11T03:09:33.621Z,60.00
2018-05-11T03:12:04.232Z,59.58
2018-05-11T03:14:34.575Z,59.75
2018-05-11T03:17:04.765Z,60.08
2018-05-11T03:19:35.449Z,60.63
2018-05-11T03:22:05.997Z,60.46
2018-05-11T03:24:36.367Z,60.45
2018-05-11T03:27:07.026Z,60.67
2018-05-11T03:29:37.600Z,61.42
2018-05-11T03:32:19.863Z,61.14
2018-05-11T03:34:50.463Z,61.02
2018-05-11T04:22:40.273Z,63.70
2018-05-11T04:25:11.553Z,63.32
2018-05-11T04:27:42.951Z,62.77
2018-05-11T04:30:16.144Z,62.31
2018-05-11T04:32:46.392Z,61.65
2018-05-11T04:35:16.769Z,61.14
2018-05-11T04:37:47.406Z,61.33
2018-05-11T04:40:18.347Z,61.00
2018-05-11T04:42:54.810Z,60.79
2018-05-11T04:45:33.676Z,60.56
2018-05-11T04:48:09.007Z,60.47
2018-05-11T04:50:39.562Z,60.25
2018-05-11T04:53:11.608Z,59.81
2018-05-11T04:55:41.836Z,59.49
2018-05-11T04:58:15.173Z,59.23
2018-05-11T05:00:46.308Z,59.33
2018-05-11T05:03:17.641Z,59.28
2018-05-11T05:05:48.572Z,58.81
2018-05-11T05:08:26.785Z,57.77
2018-05-11T05:10:58.385Z,56.84
2018-05-11T05:13:32.553Z,56.82
2018-05-11T05:16:05.412Z,57.26
2018-05-11T05:18:35.808Z,57.34
2018-05-11T05:21:06.044Z,56.81
2018-05-11T05:23:36.681Z,56.29
2018-05-11T05:26:08.188Z,56.33
2018-05-11T05:28:38.606Z,56.74
2018-05-11T05:31:19.440Z,56.88
2018-05-11T05:34:04.066Z,56.41
2018-05-11T05:36:35.073Z,56.64
2018-05-11T05:39:06.324Z,55.99
2018-05-11T05:41:37.349Z,54.95
2018-05-11T05:44:33.437Z,54.86
2018-05-11T05:47:04.022Z,54.94
2018-05-11T05:49:34.338Z,54.33
2018-05-11T05:52:05.501Z,54.76
2018-05-11T05:54:36.759Z,54.18
2018-05-11T05:57:06.947Z,53.22
2018-05-11T05:59:37.573Z,51.99
2018-05-11T06:02:07.732Z,50.94
2018-05-11T06:04:38.139Z,51.29
2018-05-11T06:07:11.544Z,51.23
2018-05-11T06:09:53.481Z,51.01
2018-05-11T06:21:15.400Z,50.69
2018-05-11T06:23:45.618Z,50.13
2018-05-11T06:26:21.161Z,48.88
2018-05-11T06:29:07.840Z,48.27
2018-05-11T06:31:38.725Z,48.87
2018-05-11T06:34:13.679Z,48.53
2018-05-11T06:36:51.355Z,47.91
2018-05-11T06:39:21.877Z,48.61
2018-05-11T06:41:52.144Z,48.18
2018-05-11T06:44:22.654Z,49.03
2018-05-11T06:46:52.966Z,48.21
2018-05-11T06:49:23.515Z,46.90
2018-05-11T06:51:53.602Z,45.61
2018-05-11T06:54:24.017Z,45.70
2018-05-11T06:56:55.271Z,44.87
2018-05-11T06:59:25.813Z,45.16
2018-05-11T07:01:56.537Z,44.23
2018-05-11T07:04:26.732Z,44.14
2018-05-11T07:06:57.052Z,44.38
2018-05-11T07:09:27.724Z,43.70
2018-05-11T07:11:57.995Z,44.09
2018-05-11T07:14:29.091Z,42.86
2018-05-11T07:16:59.465Z,43.33
2018-05-11T07:19:29.932Z,42.78
2018-05-11T07:22:01.058Z,41.76
2018-05-11T07:24:31.389Z,41.91
2018-05-11T07:27:01.589Z,42.06
2018-05-11T07:29:32.680Z,41.06
2018-05-11T07:32:03.266Z,40.67
2018-05-11T07:34:33.699Z,39.95
2018-05-11T07:37:07.706Z,39.86
2018-05-11T07:39:39.078Z,39.31
2018-05-11T07:42:10.602Z,38.96
2018-05-11T07:44:42.973Z,38.46
2018-05-11T07:47:13.710Z,38.87
2018-05-11T07:49:43.956Z,37.60
2018-05-11T07:52:14.115Z,37.70
2018-05-11T07:54:45.165Z,37.48
2018-05-11T07:57:16.615Z,35.99
2018-05-11T07:59:47.559Z,36.54
2018-05-11T08:02:19.749Z,37.09
2018-05-11T08:04:49.942Z,37.43
2018-05-11T08:07:20.659Z,36.69
2018-05-11T08:10:00.194Z,38.60
2018-05-11T08:12:35.459Z,38.31
2018-05-11T08:15:07.550Z,37.80
2018-05-11T08:17:41.371Z,38.34
2018-05-11T08:20:13.709Z,37.97
2018-05-11T08:22:45.826Z,36.85
2018-05-11T08:25:16.469Z,36.26
2018-05-11T08:27:47.124Z,37.13
2018-05-11T08:30:27.214Z,39.70
2018-05-11T08:32:59.035Z,39.26
2018-05-11T08:35:29.760Z,39.69
2018-05-11T08:38:00.617Z,39.88
2018-05-11T08:40:31.568Z,40.37
2018-05-11T08:43:02.197Z,41.98
2018-05-11T08:48:10.321Z,40.24
2018-05-11T08:50:40.775Z,41.04
2018-05-11T08:53:44.213Z,41.66
2018-05-11T08:56:16.469Z,41.37
2018-05-11T08:58:52.815Z,39.17
2018-05-11T09:01:23.559Z,36.69
2018-05-11T09:03:54.239Z,36.18
2018-05-11T09:06:45.944Z,35.38
2018-05-11T09:09:16.669Z,34.57
2018-05-11T09:11:47.117Z,33.71
2018-05-11T09:16:57.157Z,32.78
2018-05-11T09:19:27.810Z,31.99
2018-05-11T09:22:00.330Z,32.06
2018-05-11T09:24:33.843Z,32.24
2018-05-11T09:27:07.395Z,31.71
2018-05-11T09:29:38.963Z,31.88
2018-05-11T09:32:11.058Z,34.17
2018-05-11T09:34:41.924Z,34.10
2018-05-11T09:37:20.319Z,33.08
2018-05-11T09:39:54.235Z,32.92
2018-05-11T09:42:27.133Z,32.69
2018-05-11T09:44:57.394Z,32.44
2018-05-11T09:47:28.541Z,32.98
2018-05-11T09:49:59.318Z,32.22
2018-05-11T09:52:29.646Z,31.92
2018-05-11T09:55:00.170Z,30.85
2018-05-11T09:57:30.499Z,30.73
2018-05-11T10:00:01.369Z,31.27
2018-05-11T10:02:37.979Z,30.67
2018-05-11T10:05:08.795Z,29.91
2018-05-11T10:07:39.865Z,30.14
2018-05-11T10:10:32.341Z,29.51
2018-05-11T10:13:03.606Z,30.34
2018-05-11T10:15:35.039Z,30.79
2018-05-11T10:18:05.683Z,30.69
2018-05-11T10:20:38.706Z,29.51
2018-05-11T10:23:09.542Z,29.20
2018-05-11T10:25:40.937Z,28.80
2018-05-11T10:28:11.234Z,28.41
2018-05-11T10:30:41.670Z,32.11
2018-05-11T10:33:12.562Z,31.31
2018-05-11T10:35:43.160Z,30.19
2018-05-11T10:38:15.184Z,30.98
2018-05-11T10:40:53.248Z,30.71
2018-05-11T10:43:25.642Z,30.51
2018-05-11T10:45:58.337Z,31.28
2018-05-11T10:48:33.201Z,31.13
2018-05-11T10:51:10.307Z,31.45
2018-05-11T10:53:42.226Z,31.44
2018-05-11T10:56:13.373Z,30.64
2018-05-11T10:58:46.210Z,30.07
2018-05-11T11:01:18.439Z,28.98
2018-05-11T11:03:50.516Z,28.40
2018-05-11T11:06:22.510Z,27.35
2018-05-11T11:08:56.697Z,27.02
2018-05-11T11:11:28.640Z,27.15
2018-05-11T11:14:00.082Z,27.49
2018-05-11T11:16:32.125Z,27.29
2018-05-11T11:19:06.523Z,27.90
2018-05-11T11:21:39.123Z,27.64
2018-05-11T11:24:23.237Z,27.47
2018-05-11T11:27:14.705Z,27.53
2018-05-11T11:29:46.517Z,26.49
2018-05-11T11:32:18.164Z,26.83
2018-05-11T11:34:50.093Z,26.74
2018-05-11T11:37:21.814Z,26.58
2018-05-11T11:39:55.017Z,26.61
2018-05-11T11:42:26.784Z,25.97
2018-05-11T11:44:57.269Z,25.43
2018-05-11T11:47:31.010Z,25.95
2018-05-11T11:50:14.548Z,26.37
2018-05-11T11:52:55.381Z,25.13
2018-05-11T11:55:27.320Z,25.54
2018-05-11T12:03:13.081Z,24.11
2018-05-11T12:05:44.121Z,23.83
2018-05-11T12:08:14.426Z,23.92
2018-05-11T12:10:45.043Z,24.04
2018-05-11T12:13:15.814Z,23.26
2018-05-11T12:15:52.203Z,23.23
2018-05-11T12:18:27.138Z,22.92
2018-05-11T12:20:57.808Z,22.37
2018-05-11T12:23:46.257Z,22.33
2018-05-11T12:26:21.195Z,21.83
2018-05-11T12:29:02.757Z,21.93
2018-05-11T12:31:36.195Z,22.94
2018-05-11T12:34:07.864Z,23.98
2018-05-11T12:36:51.148Z,23.50
2018-05-11T12:39:23.264Z,23.08
2018-05-11T12:41:54.856Z,22.33
2018-05-11T12:44:27.177Z,22.24
2018-05-11T12:46:58.810Z,23.38
2018-05-11T12:49:30.330Z,24.28
2018-05-11T12:52:07.392Z,24.21
2018-05-11T12:54:41.008Z,22.80
2018-05-11T13:00:23.064Z,21.65
2018-05-11T13:02:55.077Z,21.93
2018-05-11T13:05:26.393Z,22.20
2018-05-11T13:07:59.849Z,22.86
2018-05-11T13:10:40.212Z,23.42
2018-05-11T13:13:12.072Z,24.34
2018-05-11T13:15:45.296Z,24.59
2018-05-11T13:18:16.681Z,24.38
2018-05-11T13:20:47.786Z,24.14
2018-05-11T13:23:19.472Z,24.55
2018-05-11T13:25:50.942Z,23.66
2018-05-11T13:28:22.340Z,23.40
2018-05-11T13:30:55.558Z,23.69
2018-05-11T13:33:27.049Z,23.65
2018-05-11T13:35:58.214Z,23.93
2018-05-11T13:38:28.581Z,23.24
2018-05-11T13:40:59.819Z,23.41
2018-05-11T13:43:47.543Z,23.89
2018-05-11T13:46:27.763Z,24.28
2018-05-11T13:49:13.512Z,24.20
2018-05-11T13:51:45.830Z,23.30
2018-05-11T13:54:19.614Z,22.73
2018-05-11T13:57:14.592Z,22.60
2018-05-11T13:59:46.460Z,21.96
2018-05-11T14:02:17.439Z,22.32
2018-05-11T14:04:52.957Z,21.57
2018-05-11T14:07:24.625Z,21.44
2018-05-11T14:09:55.557Z,22.26
2018-05-11T14:12:31.722Z,20.97
2018-05-11T14:15:06.990Z,21.58
2018-05-11T14:17:59.898Z,22.51
2018-05-11T14:20:31.063Z,21.80
2018-05-11T14:23:02.862Z,21.54
2018-05-11T14:25:39.161Z,21.21
2018-05-11T14:32:40.775Z,21.23
2018-05-11T14:37:47.265Z,22.15
2018-05-11T14:40:28.421Z,21.52
2018-05-11T14:43:06.112Z,20.38
2018-05-11T14:45:41.551Z,21.10
2018-05-11T14:48:17.942Z,21.08
2018-05-11T14:50:50.453Z,21.40
2018-05-11T14:53:25.640Z,20.74
2018-05-11T14:56:10.337Z,20.72
2018-05-11T14:58:43.981Z,20.72
2018-05-11T15:01:16.632Z,21.87
2018-05-11T15:03:52.557Z,21.40
2018-05-11T15:06:37.909Z,21.57
2018-05-11T15:09:10.673Z,21.80
2018-05-11T15:11:51.011Z,21.56
2018-05-11T15:14:23.495Z,22.10
2018-05-11T15:16:56.568Z,22.84
2018-05-11T15:19:34.136Z,22.90
2018-05-11T15:22:15.712Z,22.70
2018-05-11T15:24:47.745Z,23.13
2018-05-11T15:27:21.971Z,23.11
2018-05-11T15:29:57.343Z,22.88
2018-05-11T15:32:32.506Z,22.80
2018-05-11T15:35:04.213Z,23.23
2018-05-11T15:40:20.557Z,23.91
2018-05-11T15:42:50.925Z,24.47
2018-05-11T15:45:26.381Z,24.34
2018-05-11T15:48:01.606Z,24.11
2018-05-11T15:50:33.553Z,24.49
2018-05-11T15:53:07.220Z,24.57
2018-05-11T15:55:42.371Z,24.46
2018-05-11T15:58:14.264Z,24.29
2018-05-11T16:00:45.654Z,24.24
2018-05-11T16:03:20.205Z,23.87
2018-05-11T16:05:51.637Z,24.03
2018-05-11T16:08:22.939Z,24.11
2018-05-11T16:10:57.208Z,23.85
2018-05-11T16:13:31.985Z,23.94
2018-05-11T16:16:09.080Z,24.39
2018-05-11T16:18:53.229Z,24.42
2018-05-11T16:21:31.135Z,25.07
2018-05-11T16:24:06.721Z,25.13
2018-05-11T16:26:37.238Z,25.31
2018-05-11T16:29:10.480Z,25.20
2018-05-11T16:31:43.713Z,25.19
2018-05-11T16:34:14.399Z,25.05
2018-05-11T16:36:44.683Z,25.02
2018-05-11T16:39:17.589Z,24.89
2018-05-11T16:41:50.707Z,24.85
2018-05-11T16:44:21.511Z,25.03
2018-05-11T16:46:52.507Z,25.41
2018-05-11T16:49:22.815Z,25.50
2018-05-11T16:51:54.034Z,25.57
2018-05-11T16:54:25.350Z,25.74
2018-05-11T16:56:57.064Z,25.78
2018-05-11T16:59:28.109Z,25.63
2018-05-11T17:02:08.003Z,25.52
2018-05-11T17:04:41.657Z,25.66
2018-05-11T17:07:26.030Z,25.61
2018-05-11T17:10:04.312Z,25.83
2018-05-11T17:12:36.589Z,25.68
2018-05-11T17:15:09.928Z,25.57
2018-05-11T17:17:47.026Z,25.70
2018-05-11T17:20:18.923Z,25.96
2018-05-11T17:22:49.444Z,26.39
2018-05-11T17:25:20.208Z,26.25
2018-05-11T17:27:55.001Z,26.47
2018-05-11T17:30:26.175Z,26.69
2018-05-11T17:32:57.520Z,26.47
2018-05-11T17:35:27.928Z,26.59
2018-05-11T17:44:12.308Z,27.14
2018-05-11T17:46:44.498Z,27.13
2018-05-11T17:49:20.883Z,27.16
2018-05-11T17:51:51.408Z,27.27
2018-05-11T17:54:26.573Z,27.39
2018-05-11T17:56:59.441Z,27.36
2018-05-11T17:59:29.946Z,27.44
2018-05-11T18:02:01.597Z,27.46
2018-05-11T18:04:32.457Z,27.69
2018-05-11T18:07:04.043Z,27.88
2018-05-11T18:09:37.194Z,27.74
2018-05-11T18:12:08.130Z,27.83
2018-05-11T18:14:54.277Z,28.05
2018-05-11T18:17:25.055Z,28.22
2018-05-11T18:19:55.658Z,28.21
2018-05-11T18:22:27.100Z,28.35
2018-05-11T18:25:00.819Z,28.24
2018-05-11T18:27:32.252Z,28.16
2018-05-11T18:30:07.496Z,28.47
2018-05-11T18:32:39.166Z,28.64
2018-05-11T18:35:12.761Z,31.87
2018-05-11T18:37:49.811Z,32.50
2018-05-11T18:40:22.714Z,33.32
2018-05-11T18:42:53.218Z,34.45
2018-05-11T18:45:23.445Z,35.09
2018-05-11T18:47:54.840Z,35.86
2018-05-11T18:50:27.364Z,36.46
2018-05-11T18:52:58.356Z,37.07
2018-05-11T18:55:29.606Z,37.70
2018-05-11T18:58:25.528Z,38.19
2018-05-11T19:00:57.498Z,38.58
2018-05-11T19:05:56.831Z,39.11
2018-05-11T19:08:28.408Z,39.11
2018-05-11T19:11:02.285Z,39.60
2018-05-11T19:13:33.861Z,39.83
2018-05-11T19:16:06.826Z,40.15
2018-05-11T19:18:41.391Z,40.24
2018-05-11T19:21:14.379Z,40.52
2018-05-11T19:23:45.716Z,40.84
2018-05-11T19:26:18.376Z,40.55
2018-05-11T19:28:49.853Z,40.66
2018-05-11T19:31:22.783Z,40.89
2018-05-11T19:36:35.712Z,41.30
2018-05-11T19:39:07.765Z,41.24
2018-05-11T19:41:39.447Z,41.07
2018-05-11T19:44:11.968Z,41.05
2018-05-11T19:46:45.339Z,41.17
2018-05-11T19:49:17.087Z,41.37
2018-05-11T19:51:49.192Z,41.84
2018-05-11T19:54:27.665Z,42.02
2018-05-11T19:57:00.168Z,42.06
2018-05-11T19:59:32.034Z,42.41
2018-05-11T20:02:05.330Z,42.40
2018-05-11T20:04:37.114Z,42.46
2018-05-11T20:07:10.801Z,42.47
2018-05-11T20:09:42.329Z,42.54
2018-05-11T20:12:15.243Z,42.51
2018-05-11T20:14:56.588Z,42.62
2018-05-11T20:17:45.633Z,42.73
2018-05-11T20:20:24.304Z,42.91
2018-05-11T20:22:56.956Z,43.04
2018-05-11T20:25:32.606Z,42.98
2018-05-11T20:28:05.152Z,43.16
2018-05-11T20:30:39.391Z,43.09
2018-05-11T20:35:49.483Z,43.04
2018-05-11T20:38:20.930Z,42.88
2018-05-11T20:43:31.692Z,42.91
2018-05-11T20:48:46.475Z,43.23
2018-05-11T20:51:20.966Z,43.18
2018-05-11T20:53:51.710Z,43.27
2018-05-11T20:56:23.117Z,43.16
2018-05-11T20:59:05.210Z,43.30
2018-05-11T21:01:35.869Z,43.20
2018-05-11T21:04:07.482Z,43.11
2018-05-11T21:06:38.282Z,43.09
2018-05-11T21:12:23.665Z,43.06
2018-05-11T21:14:55.288Z,43.08
2018-05-11T21:17:26.498Z,42.89
2018-05-11T21:19:58.419Z,42.69
2018-05-11T21:25:10.211Z,42.08
2018-05-11T21:27:41.099Z,41.92
2018-05-11T21:30:26.568Z,41.84
2018-05-11T21:32:57.249Z,41.74
2018-05-11T21:35:27.810Z,41.60
2018-05-11T21:38:00.390Z,41.38
2018-05-11T21:40:31.926Z,41.36
2018-05-11T21:43:05.487Z,41.51
2018-05-11T21:45:39.275Z,41.50
2018-05-11T21:48:12.368Z,41.53
2018-05-11T21:50:43.653Z,41.61
2018-05-11T21:53:14.343Z,41.99
2018-05-11T21:55:44.732Z,41.95
2018-05-11T21:58:15.151Z,41.94
2018-05-11T22:00:47.001Z,41.85
2018-05-11T22:03:18.790Z,42.17
2018-05-11T22:05:51.270Z,42.24
2018-05-11T22:08:25.855Z,42.09
2018-05-11T22:10:56.505Z,42.40
2018-05-11T22:13:28.159Z,42.54
2018-05-11T22:16:02.105Z,42.79
2018-05-11T22:18:33.024Z,42.37
2018-05-11T22:21:04.542Z,42.14
2018-05-11T22:23:35.917Z,42.08
2018-05-11T22:26:18.644Z,42.02
2018-05-11T22:28:50.368Z,41.79
2018-05-11T22:31:37.198Z,41.57
2018-05-11T22:34:09.666Z,41.66
2018-05-11T22:36:40.467Z,41.38
2018-05-11T22:39:11.635Z,41.89
2018-05-11T22:41:43.194Z,42.21
2018-05-11T22:44:13.435Z,42.04
2018-05-11T22:46:43.945Z,42.00
2018-05-11T22:49:16.414Z,41.93
2018-05-11T22:51:46.808Z,41.76
2018-05-11T22:54:17.117Z,41.54
2018-05-11T22:56:47.453Z,41.41
2018-05-11T22:59:18.076Z,41.25
2018-05-11T23:01:49.413Z,41.61
2018-05-11T23:04:22.988Z,41.60
2018-05-11T23:06:53.536Z,41.66
2018-05-11T23:09:24.201Z,41.80
2018-05-11T23:11:56.015Z,41.62
2018-05-11T23:14:29.799Z,41.72
2018-05-11T23:20:06.178Z,42.35
2018-05-11T23:22:37.087Z,42.47
2018-05-11T23:25:07.336Z,42.48
2018-05-11T23:27:37.485Z,42.30
2018-05-11T23:30:08.065Z,42.25
2018-05-11T23:32:38.533Z,42.12
2018-05-11T23:35:09.201Z,42.38
2018-05-11T23:37:39.337Z,42.85
2018-05-11T23:40:10.236Z,43.10
2018-05-11T23:42:40.793Z,43.30
2018-05-11T23:45:14.043Z,43.05
2018-05-11T23:47:44.473Z,43.05
2018-05-11T23:50:17.655Z,43.03
2018-05-11T23:52:47.921Z,42.88
2018-05-11T23:55:18.703Z,43.32
2018-05-11T23:57:49.388Z,43.46
